sensor_id;sensor_type;location;lat;lon;timestamp;pressure;altitude;pressure_sealevel;temperature
57468;BMP280;43311;51.196;7.518;2024-02-28T00:02:03;97131.75;;;0.09
57468;BMP280;43311;51.196;7.518;2024-02-28T00:04:29;97122.31;;;0.01
57468;BMP280;43311;51.196;7.518;2024-02-28T00:06:54;97146.69;;;0.16
57468;BMP280;43311;51.196;7.518;2024-02-28T00:09:19;97136.06;;;0.05
57468;BMP280;43311;51.196;7.518;2024-02-28T00:11:46;97142.06;;;0.09
57468;BMP280;43311;51.196;7.518;2024-02-28T00:14:12;97154.34;;;0.00
57468;BMP280;43311;51.196;7.518;2024-02-28T00:16:45;97148.84;;;0.02
57468;BMP280;43311;51.196;7.518;2024-02-28T00:19:12;97123.97;;;-0.06
57468;BMP280;43311;51.196;7.518;2024-02-28T00:21:39;97148.97;;;-0.18
57468;BMP280;43311;51.196;7.518;2024-02-28T00:24:05;97139.94;;;-0.36
57468;BMP280;43311;51.196;7.518;2024-02-28T00:26:30;97141.34;;;-0.39
57468;BMP280;43311;51.196;7.518;2024-02-28T00:28:55;97143.41;;;-0.44
57468;BMP280;43311;51.196;7.518;2024-02-28T00:31:21;97155.41;;;-0.36
57468;BMP280;43311;51.196;7.518;2024-02-28T00:33:47;97140.94;;;-0.53
57468;BMP280;43311;51.196;7.518;2024-02-28T00:36:13;97142.94;;;-0.58
57468;BMP280;43311;51.196;7.518;2024-02-28T00:38:38;97143.06;;;-0.55
57468;BMP280;43311;51.196;7.518;2024-02-28T00:41:04;97142.09;;;-0.62
57468;BMP280;43311;51.196;7.518;2024-02-28T00:43:29;97138.22;;;-0.68
57468;BMP280;43311;51.196;7.518;2024-02-28T00:45:54;97156.13;;;-0.71
57468;BMP280;43311;51.196;7.518;2024-02-28T00:48:22;97156.34;;;-0.76
57468;BMP280;43311;51.196;7.518;2024-02-28T00:50:47;97143.91;;;-0.74
57468;BMP280;43311;51.196;7.518;2024-02-28T00:53:13;97172.81;;;-0.45
57468;BMP280;43311;51.196;7.518;2024-02-28T00:55:38;97161.75;;;-0.46
57468;BMP280;43311;51.196;7.518;2024-02-28T00:58:03;97155.53;;;-0.57
57468;BMP280;43311;51.196;7.518;2024-02-28T01:00:29;97162.13;;;-0.68
57468;BMP280;43311;51.196;7.518;2024-02-28T01:02:54;97164.94;;;-0.61
57468;BMP280;43311;51.196;7.518;2024-02-28T01:05:20;97180.63;;;-0.54
57468;BMP280;43311;51.196;7.518;2024-02-28T01:07:45;97174.19;;;-0.60
57468;BMP280;43311;51.196;7.518;2024-02-28T01:10:11;97152.16;;;-0.69
57468;BMP280;43311;51.196;7.518;2024-02-28T01:12:37;97177.22;;;-0.46
57468;BMP280;43311;51.196;7.518;2024-02-28T01:15:02;97159.16;;;-0.58
57468;BMP280;43311;51.196;7.518;2024-02-28T01:17:29;97172.75;;;-0.69
57468;BMP280;43311;51.196;7.518;2024-02-28T01:19:56;97166.41;;;-0.83
57468;BMP280;43311;51.196;7.518;2024-02-28T01:22:22;97174.09;;;-0.95
57468;BMP280;43311;51.196;7.518;2024-02-28T01:24:47;97162.81;;;-1.03
57468;BMP280;43311;51.196;7.518;2024-02-28T01:27:12;97160.03;;;-0.98
57468;BMP280;43311;51.196;7.518;2024-02-28T01:29:38;97164.72;;;-0.79
57468;BMP280;43311;51.196;7.518;2024-02-28T01:32:03;97176.09;;;-0.68
57468;BMP280;43311;51.196;7.518;2024-02-28T01:34:29;97149.91;;;-0.70
57468;BMP280;43311;51.196;7.518;2024-02-28T01:36:54;97180.41;;;-0.61
57468;BMP280;43311;51.196;7.518;2024-02-28T01:39:20;97173.53;;;-0.68
57468;BMP280;43311;51.196;7.518;2024-02-28T01:41:53;97146.88;;;-0.84
57468;BMP280;43311;51.196;7.518;2024-02-28T01:44:19;97158.72;;;-0.71
57468;BMP280;43311;51.196;7.518;2024-02-28T01:46:45;97169.00;;;-0.71
57468;BMP280;43311;51.196;7.518;2024-02-28T01:49:11;97152.47;;;-0.82
57468;BMP280;43311;51.196;7.518;2024-02-28T01:51:37;97154.19;;;-0.86
57468;BMP280;43311;51.196;7.518;2024-02-28T01:54:02;97169.88;;;-0.79
57468;BMP280;43311;51.196;7.518;2024-02-28T01:56:28;97149.13;;;-0.95
57468;BMP280;43311;51.196;7.518;2024-02-28T01:58:54;97154.56;;;-1.08
57468;BMP280;43311;51.196;7.518;2024-02-28T02:01:20;97161.97;;;-1.07
57468;BMP280;43311;51.196;7.518;2024-02-28T02:03:50;97166.56;;;-1.00
57468;BMP280;43311;51.196;7.518;2024-02-28T02:06:16;97145.75;;;-1.07
57468;BMP280;43311;51.196;7.518;2024-02-28T02:08:41;97143.50;;;-1.09
57468;BMP280;43311;51.196;7.518;2024-02-28T02:11:09;97146.00;;;-1.00
57468;BMP280;43311;51.196;7.518;2024-02-28T02:13:35;97176.47;;;-0.90
57468;BMP280;43311;51.196;7.518;2024-02-28T02:16:02;97146.94;;;-1.17
57468;BMP280;43311;51.196;7.518;2024-02-28T02:18:27;97128.25;;;-1.46
57468;BMP280;43311;51.196;7.518;2024-02-28T02:20:59;97151.59;;;-1.51
57468;BMP280;43311;51.196;7.518;2024-02-28T02:23:27;97142.34;;;-1.64
57468;BMP280;43311;51.196;7.518;2024-02-28T02:25:52;97145.47;;;-1.58
57468;BMP280;43311;51.196;7.518;2024-02-28T02:28:18;97152.06;;;-1.49
57468;BMP280;43311;51.196;7.518;2024-02-28T02:30:44;97154.69;;;-1.37
57468;BMP280;43311;51.196;7.518;2024-02-28T02:33:10;97154.56;;;-1.08
57468;BMP280;43311;51.196;7.518;2024-02-28T02:35:36;97170.63;;;-1.11
57468;BMP280;43311;51.196;7.518;2024-02-28T02:38:02;97161.75;;;-1.34
57468;BMP280;43311;51.196;7.518;2024-02-28T02:40:27;97149.66;;;-1.34
57468;BMP280;43311;51.196;7.518;2024-02-28T02:42:52;97134.00;;;-1.61
57468;BMP280;43311;51.196;7.518;2024-02-28T02:45:18;97123.66;;;-1.73
57468;BMP280;43311;51.196;7.518;2024-02-28T02:47:43;97153.63;;;-1.56
57468;BMP280;43311;51.196;7.518;2024-02-28T02:50:09;97177.16;;;-1.34
57468;BMP280;43311;51.196;7.518;2024-02-28T02:52:35;97156.78;;;-1.39
57468;BMP280;43311;51.196;7.518;2024-02-28T02:55:00;97162.84;;;-1.23
57468;BMP280;43311;51.196;7.518;2024-02-28T02:57:26;97163.31;;;-1.21
57468;BMP280;43311;51.196;7.518;2024-02-28T02:59:51;97154.19;;;-1.19
57468;BMP280;43311;51.196;7.518;2024-02-28T03:02:16;97148.31;;;-1.19
57468;BMP280;43311;51.196;7.518;2024-02-28T03:04:42;97166.56;;;-1.00
57468;BMP280;43311;51.196;7.518;2024-02-28T03:07:08;97176.38;;;-0.94
57468;BMP280;43311;51.196;7.518;2024-02-28T03:09:33;97186.22;;;-0.96
57468;BMP280;43311;51.196;7.518;2024-02-28T03:11:59;97167.16;;;-0.95
57468;BMP280;43311;51.196;7.518;2024-02-28T03:14:25;97182.00;;;-1.00
57468;BMP280;43311;51.196;7.518;2024-02-28T03:16:53;97178.38;;;-0.99
57468;BMP280;43311;51.196;7.518;2024-02-28T03:19:18;97178.81;;;-0.97
57468;BMP280;43311;51.196;7.518;2024-02-28T03:21:45;97188.31;;;-0.66
57468;BMP280;43311;51.196;7.518;2024-02-28T03:24:11;97173.09;;;-0.70
57468;BMP280;43311;51.196;7.518;2024-02-28T03:26:37;97170.28;;;-0.77
57468;BMP280;43311;51.196;7.518;2024-02-28T03:47:48;97177.16;;;-0.69
57468;BMP280;43311;51.196;7.518;2024-02-28T04:46:49;97215.94;;;-0.54
57468;BMP280;43311;51.196;7.518;2024-02-28T04:49:20;97250.81;;;-0.45
57468;BMP280;43311;51.196;7.518;2024-02-28T04:51:47;97242.44;;;-0.54
57468;BMP280;43311;51.196;7.518;2024-02-28T04:54:13;97238.03;;;-0.53
57468;BMP280;43311;51.196;7.518;2024-02-28T04:56:41;97231.56;;;-0.59
57468;BMP280;43311;51.196;7.518;2024-02-28T04:59:11;97256.16;;;-0.50
57468;BMP280;43311;51.196;7.518;2024-02-28T05:01:37;97254.25;;;-0.53
57468;BMP280;43311;51.196;7.518;2024-02-28T05:04:08;97256.84;;;-0.41
57468;BMP280;43311;51.196;7.518;2024-02-28T05:06:35;97255.88;;;-0.48
57468;BMP280;43311;51.196;7.518;2024-02-28T05:09:01;97257.72;;;-0.37
57468;BMP280;43311;51.196;7.518;2024-02-28T05:11:26;97257.94;;;-0.30
57468;BMP280;43311;51.196;7.518;2024-02-28T05:13:52;97269.63;;;-0.32
57468;BMP280;43311;51.196;7.518;2024-02-28T05:16:17;97253.22;;;-0.40
57468;BMP280;43311;51.196;7.518;2024-02-28T05:18:46;97253.63;;;-0.38
57468;BMP280;43311;51.196;7.518;2024-02-28T05:21:12;97260.94;;;-0.28
57468;BMP280;43311;51.196;7.518;2024-02-28T05:23:38;97263.94;;;-0.26
57468;BMP280;43311;51.196;7.518;2024-02-28T05:26:03;97265.09;;;-0.35
57468;BMP280;43311;51.196;7.518;2024-02-28T05:28:30;97262.97;;;-0.33
57468;BMP280;43311;51.196;7.518;2024-02-28T05:39:59;97307.34;;;-0.04
57468;BMP280;43311;51.196;7.518;2024-02-28T05:42:24;97311.44;;;-0.03
57468;BMP280;43311;51.196;7.518;2024-02-28T05:44:50;97293.41;;;-0.03
57468;BMP280;43311;51.196;7.518;2024-02-28T05:47:16;97294.25;;;-0.11
57468;BMP280;43311;51.196;7.518;2024-02-28T05:49:41;97287.91;;;-0.13
57468;BMP280;43311;51.196;7.518;2024-02-28T05:52:07;97295.13;;;0.05
57468;BMP280;43311;51.196;7.518;2024-02-28T05:54:33;97283.09;;;-0.03
57468;BMP280;43311;51.196;7.518;2024-02-28T05:57:01;97291.28;;;-0.01
57468;BMP280;43311;51.196;7.518;2024-02-28T05:59:27;97284.16;;;0.08
57468;BMP280;43311;51.196;7.518;2024-02-28T06:01:52;97301.78;;;0.06
57468;BMP280;43311;51.196;7.518;2024-02-28T06:04:18;97312.19;;;0.09
57468;BMP280;43311;51.196;7.518;2024-02-28T06:07:03;97297.59;;;-0.10
57468;BMP280;43311;51.196;7.518;2024-02-28T06:09:58;97302.97;;;-0.03
57468;BMP280;43311;51.196;7.518;2024-02-28T06:12:23;97319.53;;;0.07
57468;BMP280;43311;51.196;7.518;2024-02-28T06:14:49;97311.13;;;-0.02
57468;BMP280;43311;51.196;7.518;2024-02-28T06:17:14;97306.19;;;0.17
57468;BMP280;43311;51.196;7.518;2024-02-28T06:19:39;97312.00;;;0.14
57468;BMP280;43311;51.196;7.518;2024-02-28T06:22:05;97323.19;;;0.18
57468;BMP280;43311;51.196;7.518;2024-02-28T06:24:37;97350.06;;;0.29
57468;BMP280;43311;51.196;7.518;2024-02-28T06:27:02;97307.38;;;0.08
57468;BMP280;43311;51.196;7.518;2024-02-28T06:29:28;97345.41;;;0.23
57468;BMP280;43311;51.196;7.518;2024-02-28T06:31:54;97320.16;;;0.04
57468;BMP280;43311;51.196;7.518;2024-02-28T06:34:21;97340.34;;;0.14
57468;BMP280;43311;51.196;7.518;2024-02-28T06:36:48;97342.09;;;0.22
57468;BMP280;43311;51.196;7.518;2024-02-28T06:39:13;97345.09;;;0.24
57468;BMP280;43311;51.196;7.518;2024-02-28T06:41:40;97338.56;;;0.27
57468;BMP280;43311;51.196;7.518;2024-02-28T06:44:06;97334.44;;;0.14
57468;BMP280;43311;51.196;7.518;2024-02-28T06:46:33;97337.16;;;0.29
57468;BMP280;43311;51.196;7.518;2024-02-28T06:48:58;97363.81;;;0.45
57468;BMP280;43311;51.196;7.518;2024-02-28T06:51:23;97377.34;;;0.54
57468;BMP280;43311;51.196;7.518;2024-02-28T06:53:49;97354.47;;;0.53
57468;BMP280;43311;51.196;7.518;2024-02-28T06:56:14;97359.28;;;0.54
57468;BMP280;43311;51.196;7.518;2024-02-28T06:58:40;97364.56;;;0.58
57468;BMP280;43311;51.196;7.518;2024-02-28T07:01:05;97326.94;;;0.33
57468;BMP280;43311;51.196;7.518;2024-02-28T07:03:31;97351.13;;;0.52
57468;BMP280;43311;51.196;7.518;2024-02-28T07:05:56;97365.44;;;0.62
57468;BMP280;43311;51.196;7.518;2024-02-28T07:08:21;97355.97;;;0.66
57468;BMP280;43311;51.196;7.518;2024-02-28T07:10:47;97366.72;;;0.68
57468;BMP280;43311;51.196;7.518;2024-02-28T07:13:15;97369.28;;;0.79
57468;BMP280;43311;51.196;7.518;2024-02-28T07:15:40;97358.53;;;0.77
57468;BMP280;43311;51.196;7.518;2024-02-28T07:18:06;97372.06;;;0.86
57468;BMP280;43311;51.196;7.518;2024-02-28T07:20:32;97350.59;;;0.70
57468;BMP280;43311;51.196;7.518;2024-02-28T07:22:57;97363.81;;;0.81
57468;BMP280;43311;51.196;7.518;2024-02-28T07:25:22;97368.31;;;0.84
57468;BMP280;43311;51.196;7.518;2024-02-28T07:27:48;97365.41;;;0.85
57468;BMP280;43311;51.196;7.518;2024-02-28T07:30:13;97370.56;;;0.85
57468;BMP280;43311;51.196;7.518;2024-02-28T07:32:39;97363.03;;;0.92
57468;BMP280;43311;51.196;7.518;2024-02-28T07:35:04;97387.44;;;1.07
57468;BMP280;43311;51.196;7.518;2024-02-28T07:37:30;97392.16;;;1.05
57468;BMP280;43311;51.196;7.518;2024-02-28T07:39:55;97388.28;;;1.11
57468;BMP280;43311;51.196;7.518;2024-02-28T07:46:57;97396.34;;;1.09
57468;BMP280;43311;51.196;7.518;2024-02-28T07:49:23;97375.19;;;0.92
57468;BMP280;43311;51.196;7.518;2024-02-28T07:51:50;97398.81;;;1.18
57468;BMP280;43311;51.196;7.518;2024-02-28T07:54:15;97400.78;;;1.21
57468;BMP280;43311;51.196;7.518;2024-02-28T08:04:43;97412.78;;;1.29
57468;BMP280;43311;51.196;7.518;2024-02-28T08:07:08;97411.09;;;1.33
57468;BMP280;43311;51.196;7.518;2024-02-28T08:09:33;97416.25;;;1.33
57468;BMP280;43311;51.196;7.518;2024-02-28T08:11:59;97395.47;;;1.29
57468;BMP280;43311;51.196;7.518;2024-02-28T08:14:24;97393.13;;;1.24
57468;BMP280;43311;51.196;7.518;2024-02-28T08:16:50;97384.28;;;1.25
57468;BMP280;43311;51.196;7.518;2024-02-28T08:19:15;97378.47;;;1.28
57468;BMP280;43311;51.196;7.518;2024-02-28T08:21:42;97380.72;;;1.30
57468;BMP280;43311;51.196;7.518;2024-02-28T08:24:08;97378.34;;;1.36
57468;BMP280;43311;51.196;7.518;2024-02-28T08:26:33;97398.44;;;1.43
57468;BMP280;43311;51.196;7.518;2024-02-28T08:29:00;97401.22;;;1.50
57468;BMP280;43311;51.196;7.518;2024-02-28T08:31:25;97392.72;;;1.49
57468;BMP280;43311;51.196;7.518;2024-02-28T08:33:50;97382.81;;;1.51
57468;BMP280;43311;51.196;7.518;2024-02-28T08:36:17;97402.84;;;1.54
57468;BMP280;43311;51.196;7.518;2024-02-28T08:38:42;97401.69;;;1.67
57468;BMP280;43311;51.196;7.518;2024-02-28T08:41:08;97373.41;;;1.59
57468;BMP280;43311;51.196;7.518;2024-02-28T08:43:38;97400.63;;;1.68
57468;BMP280;43311;51.196;7.518;2024-02-28T08:46:04;97421.47;;;1.87
57468;BMP280;43311;51.196;7.518;2024-02-28T08:48:30;97400.47;;;1.77
57468;BMP280;43311;51.196;7.518;2024-02-28T08:50:55;97414.13;;;1.89
57468;BMP280;43311;51.196;7.518;2024-02-28T08:53:21;97413.06;;;2.05
57468;BMP280;43311;51.196;7.518;2024-02-28T08:55:46;97425.59;;;2.19
57468;BMP280;43311;51.196;7.518;2024-02-28T08:58:12;97411.94;;;2.18
57468;BMP280;43311;51.196;7.518;2024-02-28T09:00:37;97408.41;;;2.26
57468;BMP280;43311;51.196;7.518;2024-02-28T09:03:05;97428.47;;;2.29
57468;BMP280;43311;51.196;7.518;2024-02-28T09:05:30;97407.84;;;2.17
57468;BMP280;43311;51.196;7.518;2024-02-28T09:07:55;97403.91;;;2.23
57468;BMP280;43311;51.196;7.518;2024-02-28T09:10:23;97398.50;;;2.28
57468;BMP280;43311;51.196;7.518;2024-02-28T09:12:51;97418.38;;;2.40
57468;BMP280;43311;51.196;7.518;2024-02-28T09:15:17;97403.19;;;2.38
57468;BMP280;43311;51.196;7.518;2024-02-28T09:17:43;97398.44;;;2.40
57468;BMP280;43311;51.196;7.518;2024-02-28T09:20:10;97425.22;;;2.48
57468;BMP280;43311;51.196;7.518;2024-02-28T09:22:36;97393.47;;;2.20
57468;BMP280;43311;51.196;7.518;2024-02-28T09:25:01;97430.22;;;2.41
57468;BMP280;43311;51.196;7.518;2024-02-28T09:27:30;97415.56;;;2.45
57468;BMP280;43311;51.196;7.518;2024-02-28T09:30:05;97438.09;;;2.60
57468;BMP280;43311;51.196;7.518;2024-02-28T09:32:31;97421.31;;;2.54
57468;BMP280;43311;51.196;7.518;2024-02-28T09:34:57;97438.25;;;2.67
57468;BMP280;43311;51.196;7.518;2024-02-28T09:37:22;97432.91;;;2.60
57468;BMP280;43311;51.196;7.518;2024-02-28T09:39:49;97441.59;;;2.67
57468;BMP280;43311;51.196;7.518;2024-02-28T09:50:55;97456.72;;;2.80
57468;BMP280;43311;51.196;7.518;2024-02-28T09:53:21;97448.94;;;2.96
57468;BMP280;43311;51.196;7.518;2024-02-28T10:11:46;97460.44;;;3.29
57468;BMP280;43311;51.196;7.518;2024-02-28T10:14:12;97463.34;;;3.28
57468;BMP280;43311;51.196;7.518;2024-02-28T10:16:37;97445.22;;;3.28
57468;BMP280;43311;51.196;7.518;2024-02-28T10:19:05;97445.78;;;3.37
57468;BMP280;43311;51.196;7.518;2024-02-28T10:27:10;97444.00;;;3.40
57468;BMP280;43311;51.196;7.518;2024-02-28T10:29:35;97448.53;;;3.43
57468;BMP280;43311;51.196;7.518;2024-02-28T11:00:09;97443.50;;;4.07
57468;BMP280;43311;51.196;7.518;2024-02-28T11:02:36;97451.91;;;4.19
57468;BMP280;43311;51.196;7.518;2024-02-28T11:05:02;97447.72;;;4.34
57468;BMP280;43311;51.196;7.518;2024-02-28T11:07:30;97465.03;;;4.49
57468;BMP280;43311;51.196;7.518;2024-02-28T11:20:34;97456.31;;;5.05
57468;BMP280;43311;51.196;7.518;2024-02-28T11:23:02;97464.81;;;4.79
57468;BMP280;43311;51.196;7.518;2024-02-28T11:25:31;97423.19;;;4.54
57468;BMP280;43311;51.196;7.518;2024-02-28T11:28:00;97433.19;;;4.52
57468;BMP280;43311;51.196;7.518;2024-02-28T11:30:28;97433.34;;;4.62
57468;BMP280;43311;51.196;7.518;2024-02-28T11:32:56;97453.78;;;4.64
57468;BMP280;43311;51.196;7.518;2024-02-28T11:43:23;97462.31;;;4.86
57468;BMP280;43311;51.196;7.518;2024-02-28T11:45:49;97452.22;;;4.81
57468;BMP280;43311;51.196;7.518;2024-02-28T18:11:00;97273.63;;;4.75
